VTBU/UTP METAR and TAF weather

Enter ICAO airport designator
Station Type Date Time Source
VTBU METAR 2021/09/20 04:30 UTC NOAA

VTBU 200430Z 19005KT 9999 FEW020 BKN100 28/26 Q1010 NOSIG


Station Type Date Time Source
VTBU Decoded METAR 2021/09/20 04:30 UTC NOAA

Rayong, Thailand (VTBU) 12-38N 101-21E 5M
Sep 20, 2021 - 12:30 AM EDT / 2021.09.20 0430 UTC
Wind: from the S (190 degrees) at 6 MPH (5 KT):0
Visibility: greater than 7 mile(s):0
Sky conditions: mostly cloudy
Temperature: 82 F (28 C)
Dew Point: 78 F (26 C)
Relative Humidity: 88%
Pressure (altimeter): 29.83 in. Hg (1010 hPa)
ob: VTBU 200430Z 19005KT 9999 FEW020 BKN100 28/26 Q1010 NOSIG
cycle: 4

Station Type Date Time Source
VTBU TAF 2021/09/19 18:50 UTC NOAA

TAF
AMD VTBU 191700Z 1918/2018 35004KT 9999 FEW020 SCT100
TEMPO 1920/2001 VRB15KT 4000 TSRA FEW018CB SCT035 BKN100

Example: see airport list